createdAt,value
2022-11-09T00:01:56.654Z,7.65
2022-11-09T00:04:26.170Z,7.73
2022-11-09T00:06:55.659Z,7.79
2022-11-09T00:09:25.196Z,7.73
2022-11-09T00:11:55.230Z,7.52
2022-11-09T00:14:24.659Z,7.77
2022-11-09T00:16:54.098Z,7.64
2022-11-09T00:19:24.639Z,7.57
2022-11-09T00:21:54.135Z,7.42
2022-11-09T00:24:23.567Z,7.72
2022-11-09T00:26:52.997Z,7.67
2022-11-09T00:29:22.502Z,7.62
2022-11-09T00:31:52.033Z,7.52
2022-11-09T00:34:21.390Z,7.50
2022-11-09T00:36:49.962Z,7.56
2022-11-09T00:39:19.525Z,7.31
2022-11-09T00:41:48.924Z,7.46
2022-11-09T00:44:18.259Z,7.43
2022-11-09T00:46:47.630Z,7.26
2022-11-09T00:49:17.047Z,7.47
2022-11-09T00:51:46.500Z,7.44
2022-11-09T00:54:17.699Z,7.30
2022-11-09T00:56:46.323Z,7.43
2022-11-09T00:59:15.902Z,7.35
2022-11-09T01:01:45.290Z,7.55
2022-11-09T01:04:14.783Z,7.41
2022-11-09T01:06:44.277Z,7.36
2022-11-09T01:09:13.779Z,7.31
2022-11-09T01:11:43.160Z,7.42
2022-11-09T01:14:12.644Z,7.24
2022-11-09T01:16:42.065Z,7.25
2022-11-09T01:19:10.631Z,7.46
2022-11-09T01:21:40.098Z,7.25
2022-11-09T01:24:10.373Z,7.49
2022-11-09T01:26:39.898Z,7.49
2022-11-09T01:29:09.290Z,7.30
2022-11-09T01:31:38.744Z,7.33
2022-11-09T01:34:08.221Z,7.31
2022-11-09T01:36:37.628Z,7.25
2022-11-09T01:39:07.108Z,7.28
2022-11-09T01:41:36.427Z,7.24
2022-11-09T01:44:16.453Z,7.22
2022-11-09T01:47:12.769Z,7.27
2022-11-09T01:49:59.797Z,7.21
2022-11-09T01:52:37.704Z,7.15
2022-11-09T01:55:18.723Z,7.33
2022-11-09T01:58:07.765Z,7.43
2022-11-09T02:00:39.136Z,7.28
2022-11-09T02:03:33.466Z,7.40
2022-11-09T02:06:09.135Z,7.50
2022-11-09T02:08:39.781Z,7.34
2022-11-09T02:11:21.170Z,7.57
2022-11-09T02:13:58.998Z,7.33
2022-11-09T02:16:29.624Z,7.26
2022-11-09T02:19:03.366Z,7.46
2022-11-09T02:21:33.677Z,7.54
2022-11-09T02:24:03.130Z,7.32
2022-11-09T02:26:49.523Z,7.49
2022-11-09T02:29:29.920Z,7.49
2022-11-09T02:32:06.202Z,7.48
2022-11-09T02:34:35.629Z,7.45
2022-11-09T02:37:05.001Z,7.34
2022-11-09T02:39:35.429Z,7.29
2022-11-09T02:42:21.375Z,7.36
2022-11-09T02:44:59.101Z,7.39
2022-11-09T02:47:28.762Z,7.32
2022-11-09T02:49:58.171Z,7.23
2022-11-09T02:52:27.661Z,7.21
2022-11-09T02:54:57.553Z,7.42
2022-11-09T02:57:26.969Z,7.35
2022-11-09T02:59:56.351Z,7.51
2022-11-09T03:02:25.810Z,7.51
2022-11-09T03:04:55.259Z,7.45
2022-11-09T03:07:24.801Z,7.42
2022-11-09T03:09:54.263Z,7.39
2022-11-09T03:12:29.354Z,7.60
2022-11-09T03:15:07.806Z,7.36
2022-11-09T03:17:37.525Z,7.41
2022-11-09T03:20:08.525Z,7.38
2022-11-09T03:22:38.224Z,7.16
2022-11-09T03:25:08.554Z,7.20
2022-11-09T03:27:37.983Z,7.39
2022-11-09T03:30:08.788Z,7.46
2022-11-09T03:32:41.047Z,7.51
2022-11-09T03:35:09.510Z,7.35
2022-11-09T03:37:38.237Z,7.33
2022-11-09T03:40:08.562Z,7.22
2022-11-09T03:42:38.052Z,7.38
2022-11-09T03:45:07.403Z,7.45
2022-11-09T03:47:42.809Z,7.32
2022-11-09T03:50:18.134Z,7.47
2022-11-09T03:52:48.060Z,7.38
2022-11-09T03:55:17.388Z,7.32
2022-11-09T03:57:47.140Z,7.09
2022-11-09T04:00:19.927Z,7.25
2022-11-09T04:02:48.560Z,7.20
2022-11-09T04:05:18.198Z,7.29
2022-11-09T04:07:57.833Z,7.09
2022-11-09T04:10:27.597Z,7.12
2022-11-09T04:12:56.222Z,7.21
2022-11-09T04:15:25.696Z,7.19
2022-11-09T04:18:00.583Z,7.07
2022-11-09T04:20:32.402Z,7.29
2022-11-09T04:23:05.270Z,7.12
2022-11-09T04:25:38.132Z,6.92
2022-11-09T04:28:11.733Z,7.10
2022-11-09T04:30:41.238Z,6.91
2022-11-09T04:33:10.566Z,7.18
2022-11-09T04:35:39.895Z,7.02
2022-11-09T04:38:13.933Z,7.10
2022-11-09T04:40:42.914Z,6.96
2022-11-09T04:43:16.034Z,6.90
2022-11-09T04:45:45.881Z,6.93
2022-11-09T04:48:17.467Z,6.81
2022-11-09T04:50:48.828Z,6.97
2022-11-09T04:53:18.240Z,6.97
2022-11-09T04:55:46.805Z,6.76
2022-11-09T04:58:18.896Z,7.13
2022-11-09T05:00:52.292Z,7.13
2022-11-09T05:03:22.670Z,7.01
2022-11-09T05:05:51.405Z,6.94
2022-11-09T05:08:20.803Z,7.06
2022-11-09T05:10:50.256Z,7.14
2022-11-09T05:13:18.953Z,7.08
2022-11-09T05:15:48.514Z,6.87
2022-11-09T05:18:17.961Z,6.71
2022-11-09T05:20:46.516Z,6.88
2022-11-09T05:23:33.790Z,6.89
2022-11-09T05:26:03.387Z,6.97
2022-11-09T05:28:35.265Z,6.94
2022-11-09T05:31:05.977Z,7.14
2022-11-09T05:33:35.403Z,7.09
2022-11-09T05:36:04.068Z,7.21
2022-11-09T05:38:36.388Z,7.28
2022-11-09T05:41:04.990Z,7.17
2022-11-09T05:43:34.366Z,7.10
2022-11-09T05:46:06.529Z,7.28
2022-11-09T05:48:36.450Z,7.04
2022-11-09T05:51:09.927Z,7.22
2022-11-09T05:53:43.700Z,7.28
2022-11-09T05:56:16.132Z,7.31
2022-11-09T05:58:45.556Z,7.26
2022-11-09T06:01:19.494Z,7.33
2022-11-09T06:03:48.969Z,7.37
2022-11-09T06:06:18.443Z,7.28
2022-11-09T06:08:48.131Z,7.12
2022-11-09T06:11:24.041Z,7.34
2022-11-09T06:13:53.992Z,7.43
2022-11-09T06:16:23.734Z,7.42
2022-11-09T06:18:53.225Z,7.35
2022-11-09T06:21:21.130Z,7.33
2022-11-09T06:23:51.536Z,7.46
2022-11-09T06:26:21.092Z,7.38
2022-11-09T06:28:50.620Z,7.35
2022-11-09T06:31:21.106Z,7.52
2022-11-09T06:33:51.138Z,7.64
2022-11-09T06:36:21.473Z,7.79
2022-11-09T06:38:54.383Z,7.74
2022-11-09T06:41:22.116Z,7.59
2022-11-09T06:43:52.568Z,7.42
2022-11-09T06:46:21.187Z,7.72
2022-11-09T06:48:54.428Z,7.68
2022-11-09T06:51:24.781Z,7.61
2022-11-09T06:53:54.173Z,7.77
2022-11-09T06:56:23.738Z,7.79
2022-11-09T06:58:53.244Z,7.79
2022-11-09T07:01:28.775Z,7.98
2022-11-09T07:03:58.272Z,8.06
2022-11-09T07:06:28.645Z,7.93
2022-11-09T07:08:58.643Z,8.03
2022-11-09T07:11:26.391Z,7.97
2022-11-09T07:13:57.919Z,8.10
2022-11-09T07:16:27.623Z,8.07
2022-11-09T07:18:57.302Z,7.87
2022-11-09T07:21:26.845Z,7.96
2022-11-09T07:23:56.402Z,8.02
2022-11-09T07:26:25.995Z,8.01
2022-11-09T07:28:55.638Z,8.07
2022-11-09T07:31:29.327Z,8.20
2022-11-09T07:33:58.492Z,8.06
2022-11-09T07:36:28.035Z,8.16
2022-11-09T07:38:58.138Z,7.89
2022-11-09T07:41:30.579Z,8.24
2022-11-09T07:44:01.388Z,8.09
2022-11-09T08:48:27.054Z,8.55
2022-11-09T08:51:00.238Z,8.85
2022-11-09T08:53:30.466Z,8.77
2022-11-09T08:56:00.302Z,8.72
2022-11-09T08:58:30.141Z,8.64
2022-11-09T09:00:59.809Z,8.75
2022-11-09T09:03:28.527Z,8.97
2022-11-09T09:05:57.304Z,8.88
2022-11-09T09:08:26.840Z,9.06
2022-11-09T09:10:55.629Z,9.17
2022-11-09T09:13:25.246Z,9.31
2022-11-09T09:15:54.091Z,9.09
2022-11-09T09:18:24.143Z,9.01
2022-11-09T09:20:54.015Z,9.06
2022-11-09T09:23:22.837Z,9.06
2022-11-09T09:25:56.330Z,9.19
2022-11-09T09:28:27.447Z,8.93
2022-11-09T09:31:01.420Z,9.41
2022-11-09T09:33:30.197Z,9.28
2022-11-09T09:36:00.097Z,9.09
2022-11-09T09:38:30.537Z,9.34
2022-11-09T09:41:03.808Z,9.29
2022-11-09T09:43:44.334Z,9.37
2022-11-09T09:46:27.431Z,9.60
2022-11-09T09:49:28.002Z,9.47
2022-11-09T09:52:31.922Z,9.49
2022-11-09T09:55:32.067Z,9.52
2022-11-09T09:58:14.580Z,9.44
2022-11-09T10:00:45.090Z,9.52
2022-11-09T10:03:20.522Z,9.52
2022-11-09T10:06:37.886Z,9.46
2022-11-09T10:10:12.412Z,9.47
2022-11-09T10:13:15.710Z,9.50
2022-11-09T10:16:24.235Z,9.41
2022-11-09T10:19:33.331Z,9.77
2022-11-09T10:22:38.011Z,9.84
2022-11-09T10:25:50.242Z,9.71
2022-11-09T10:28:18.599Z,9.61
2022-11-09T10:30:48.473Z,9.84
2022-11-09T10:33:21.690Z,9.64
2022-11-09T10:36:51.919Z,9.87
2022-11-09T10:39:25.606Z,9.64
2022-11-09T10:41:55.374Z,9.84
2022-11-09T10:44:24.924Z,9.63
2022-11-09T10:47:16.936Z,9.77
2022-11-09T10:49:46.683Z,9.75
2022-11-09T10:52:47.369Z,9.46
2022-11-09T10:55:28.593Z,9.72
2022-11-09T10:58:35.283Z,9.75
2022-11-09T11:01:16.137Z,9.54
2022-11-09T11:03:49.937Z,9.60
2022-11-09T11:06:23.144Z,9.52
2022-11-09T11:08:58.846Z,9.36
2022-11-09T11:11:36.774Z,9.57
2022-11-09T11:16:45.701Z,9.49
2022-11-09T11:19:44.791Z,9.94
2022-11-09T11:22:14.529Z,9.81
2022-11-09T11:25:06.247Z,9.52
2022-11-09T11:27:53.671Z,9.85
2022-11-09T11:30:37.608Z,9.85
2022-11-09T11:33:22.720Z,9.81
2022-11-09T11:36:36.935Z,9.81
2022-11-09T11:39:31.940Z,9.58
2022-11-09T11:42:15.183Z,9.90
2022-11-09T11:45:39.088Z,9.80
2022-11-09T11:48:50.306Z,9.91
2022-11-09T11:56:20.176Z,9.89
2022-11-09T11:59:16.886Z,9.59
2022-11-09T12:02:33.121Z,9.93
2022-11-09T12:06:05.780Z,9.92
2022-11-09T12:09:33.828Z,9.79
2022-11-09T12:12:08.082Z,9.59
2022-11-09T12:15:25.772Z,9.66
2022-11-09T12:18:34.654Z,9.79
2022-11-09T12:22:01.924Z,9.56
2022-11-09T12:24:58.499Z,9.64
2022-11-09T12:27:55.399Z,9.52
2022-11-09T12:30:59.995Z,9.79
2022-11-09T12:34:11.236Z,9.66
2022-11-09T12:36:50.828Z,9.41
2022-11-09T12:39:40.801Z,9.60
2022-11-09T12:42:29.092Z,9.75
2022-11-09T12:45:27.698Z,9.72
2022-11-09T12:47:59.608Z,9.94
2022-11-09T12:50:30.227Z,9.76
2022-11-09T12:53:06.038Z,9.53
2022-11-09T12:56:03.086Z,9.49
2022-11-09T12:58:37.502Z,9.76
2022-11-09T13:01:13.708Z,9.75
2022-11-09T13:03:57.332Z,9.87
2022-11-09T13:06:33.214Z,9.68
2022-11-09T13:09:23.318Z,9.76
2022-11-09T13:11:54.139Z,9.67
2022-11-09T13:14:23.690Z,9.62
2022-11-09T13:16:59.223Z,9.66
2022-11-09T13:19:37.872Z,9.65
2022-11-09T13:22:16.121Z,9.68
2022-11-09T13:25:53.228Z,9.72
2022-11-09T13:28:28.732Z,9.88
2022-11-09T13:31:04.456Z,9.79
2022-11-09T13:33:34.763Z,9.74
2022-11-09T13:36:07.384Z,9.55
2022-11-09T13:38:37.538Z,9.76
2022-11-09T13:41:34.326Z,9.87
2022-11-09T13:44:32.769Z,9.91
2022-11-09T13:47:05.967Z,9.79
2022-11-09T13:49:46.931Z,9.98
2022-11-09T13:52:58.021Z,9.84
2022-11-09T13:55:44.782Z,9.75
2022-11-09T13:58:37.639Z,9.55
2022-11-09T14:01:28.292Z,9.72
2022-11-09T14:03:58.432Z,9.62
2022-11-09T14:06:33.459Z,9.62
2022-11-09T14:09:21.866Z,9.74
2022-11-09T14:12:21.967Z,9.49
2022-11-09T14:14:58.073Z,9.67
2022-11-09T14:17:49.331Z,9.71
2022-11-09T14:20:45.089Z,9.83
2022-11-09T14:23:24.006Z,9.77
2022-11-09T14:25:53.614Z,9.87
2022-11-09T14:28:30.666Z,9.88
2022-11-09T14:31:00.502Z,9.86
2022-11-09T14:33:35.721Z,9.90
2022-11-09T14:36:06.627Z,10.02
2022-11-09T16:52:54.966Z,9.87
2022-11-09T16:55:24.673Z,9.75
2022-11-09T16:58:10.550Z,9.83
2022-11-09T17:01:09.740Z,9.88
2022-11-09T17:03:38.506Z,9.94
2022-11-09T17:06:11.626Z,10.17
2022-11-09T17:08:43.405Z,10.16
2022-11-09T17:11:16.407Z,9.91
2022-11-09T17:13:44.555Z,9.80
2022-11-09T17:16:20.323Z,10.09
2022-11-09T17:18:48.094Z,9.87
2022-11-09T17:21:17.826Z,9.89
2022-11-09T17:23:46.109Z,9.88
2022-11-09T17:26:16.953Z,10.23
2022-11-09T17:28:47.304Z,10.13
2022-11-09T17:31:24.413Z,9.94
2022-11-09T17:34:01.109Z,9.75
2022-11-09T17:36:56.858Z,9.80
2022-11-09T17:39:21.072Z,9.94
2022-11-09T17:41:51.261Z,9.78
2022-11-09T17:44:20.840Z,9.83
2022-11-09T17:46:50.500Z,9.82
2022-11-09T17:49:20.408Z,9.95
2022-11-09T17:51:49.909Z,9.87
2022-11-09T17:54:21.423Z,9.97
2022-11-09T17:56:50.599Z,9.71
2022-11-09T17:59:21.978Z,9.85
2022-11-09T18:01:52.383Z,9.77
2022-11-09T18:04:20.192Z,9.81
2022-11-09T18:06:51.598Z,10.00
2022-11-09T18:12:24.308Z,9.78
2022-11-09T18:14:54.791Z,9.65
2022-11-09T18:17:24.409Z,9.71
2022-11-09T18:19:54.123Z,9.63
2022-11-09T18:22:23.771Z,9.87
2022-11-09T18:24:53.315Z,9.87
2022-11-09T18:27:23.702Z,9.94
2022-11-09T18:30:01.901Z,9.72
2022-11-09T18:32:31.962Z,9.98
2022-11-09T18:34:59.889Z,9.98
2022-11-09T18:37:34.340Z,10.08
2022-11-09T18:40:02.183Z,9.98
2022-11-09T18:42:35.031Z,9.76
2022-11-09T18:45:05.167Z,9.93
2022-11-09T18:47:33.873Z,9.92
2022-11-09T18:50:02.438Z,9.74
2022-11-09T18:52:34.168Z,9.83
2022-11-09T18:55:02.148Z,10.06
2022-11-09T18:57:32.299Z,10.02
2022-11-09T19:00:05.709Z,9.82
2022-11-09T19:02:36.199Z,9.93
2022-11-09T19:05:06.951Z,9.76
2022-11-09T19:07:37.536Z,9.95
2022-11-09T19:10:08.751Z,9.91
2022-11-09T19:12:40.272Z,10.04
2022-11-09T19:15:08.667Z,9.92
2022-11-09T19:17:43.662Z,10.04
2022-11-09T19:20:14.946Z,10.10
2022-11-09T19:22:47.147Z,10.04
2022-11-09T19:25:16.775Z,10.04
2022-11-09T19:27:44.615Z,9.98
2022-11-09T19:30:54.204Z,10.00
2022-11-09T19:33:23.792Z,10.01
2022-11-09T19:36:23.158Z,9.96
2022-11-09T19:38:45.146Z,10.12
2022-11-09T19:41:16.055Z,10.10
2022-11-09T19:43:51.902Z,10.19
2022-11-09T19:46:22.818Z,10.06
2022-11-09T20:35:07.006Z,9.96
2022-11-09T20:37:34.883Z,9.75
2022-11-09T20:40:08.174Z,9.93
2022-11-09T20:42:36.596Z,9.84
2022-11-09T20:45:07.621Z,9.91
2022-11-09T20:48:03.237Z,9.86
2022-11-09T20:50:25.033Z,9.87
2022-11-09T20:52:56.394Z,9.81
2022-11-09T20:55:24.742Z,9.80
2022-11-09T20:57:55.620Z,9.80
2022-11-09T21:00:24.736Z,9.92
2022-11-09T21:02:52.619Z,9.92
2022-11-09T21:05:20.527Z,9.71
2022-11-09T21:07:50.888Z,9.85
2022-11-09T21:10:20.422Z,9.94
2022-11-09T21:12:55.114Z,10.11
2022-11-09T21:15:24.656Z,10.10
2022-11-09T21:17:55.154Z,10.08
2022-11-09T21:20:23.020Z,10.09
2022-11-09T21:23:09.257Z,10.19
2022-11-09T21:26:03.149Z,10.22
2022-11-09T21:28:51.127Z,10.16
2022-11-09T21:31:20.682Z,10.09
2022-11-09T21:33:48.430Z,9.93
2022-11-09T21:39:36.887Z,10.16
2022-11-09T21:42:05.326Z,10.21
2022-11-09T21:44:34.934Z,10.15
2022-11-09T21:47:05.585Z,10.18
2022-11-09T21:52:21.293Z,10.19
2022-11-09T21:54:50.740Z,9.93
2022-11-09T21:57:20.213Z,10.15
2022-11-09T22:00:15.828Z,10.14
2022-11-09T22:03:09.892Z,9.97
2022-11-09T22:37:43.142Z,10.08
2022-11-09T22:40:12.950Z,10.08
2022-11-09T22:42:42.479Z,10.19
2022-11-09T22:45:11.993Z,10.09
2022-11-09T22:47:41.437Z,10.19
2022-11-09T22:50:09.453Z,10.02
2022-11-09T22:52:39.255Z,10.15
2022-11-09T22:55:09.575Z,10.05
2022-11-09T22:57:39.004Z,9.98
2022-11-09T23:00:15.102Z,10.03
2022-11-09T23:02:44.555Z,10.13
2022-11-09T23:05:14.167Z,10.03
2022-11-09T23:07:42.722Z,10.03
2022-11-09T23:10:12.256Z,10.13
2022-11-09T23:12:41.731Z,10.06
2022-11-09T23:15:13.433Z,9.97
2022-11-09T23:18:01.334Z,9.89
2022-11-09T23:20:35.525Z,10.08
2022-11-09T23:23:05.877Z,9.77
2022-11-09T23:25:55.109Z,9.89
2022-11-09T23:28:25.373Z,9.95
2022-11-09T23:30:54.834Z,9.95
2022-11-09T23:33:24.562Z,10.06
2022-11-09T23:35:52.509Z,10.28
2022-11-09T23:38:22.880Z,10.07
2022-11-09T23:40:50.865Z,10.06
2022-11-09T23:43:19.118Z,10.13
2022-11-09T23:45:47.425Z,9.97
2022-11-09T23:48:19.943Z,10.29
2022-11-09T23:50:49.443Z,10.25
2022-11-09T23:53:17.176Z,10.22
2022-11-09T23:55:46.728Z,10.25
2022-11-09T23:58:14.434Z,10.29
